Time;durP1;ratioP1;P1;durP2;ratioP2;P2;SDS_P1;SDS_P2;PMS_P1;PMS_P2;Temp;Humidity;BMP_temperature;BMP_pressure;BME280_temperature;BME280_humidity;BME280_pressure;Samples;Min_cycle;Max_cycle;Signal;HPM_P1;HPM_P2
2021/09/01 00:17:37;;;;;;;10.68;5.75;;;;;;;;;;4187549;31;20102;-66
2021/09/01 00:20:05;;;;;;;10.52;5.12;;;;;;;;;;4215106;34;20113;-67
2021/09/01 00:22:31;;;;;;;9.75;5.40;;;;;;;;;;4192487;34;20273;-66
2021/09/01 00:24:56;;;;;;;15.65;5.30;;;;;;;;;;4199049;34;20201;-66
2021/09/01 00:27:22;;;;;;;14.25;5.60;;;;;;;;;;4206339;34;20587;-66
2021/09/01 00:29:49;;;;;;;15.27;6.40;;;;;;;;;;4193325;34;20141;-67
2021/09/01 00:32:15;;;;;;;12.20;5.68;;;;;;;;;;4193240;34;20514;-67
2021/09/01 00:34:40;;;;;;;17.77;5.93;;;;;;;;;;4192568;34;20186;-67
2021/09/01 00:37:06;;;;;;;12.02;5.28;;;;;;;;;;4192417;34;20525;-67
2021/09/01 00:39:32;;;;;;;9.80;5.72;;;;;;;;;;4201565;34;20194;-67
2021/09/01 00:42:08;;;;;;;14.52;5.80;;;;;;;;;;4185831;34;20109;-66
2021/09/01 00:44:34;;;;;;;14.13;5.50;;;;;;;;;;4188779;34;20160;-67
2021/09/01 00:47:02;;;;;;;9.93;5.43;;;;;;;;;;4206420;34;20122;-67
2021/09/01 00:49:28;;;;;;;9.73;5.97;;;;;;;;;;4193082;34;20129;-67
2021/09/01 00:51:54;;;;;;;15.75;5.70;;;;;;;;;;4192438;34;20110;-67
2021/09/01 00:54:24;;;;;;;9.35;5.78;;;;;;;;;;4192367;34;20164;-67
2021/09/01 00:57:17;;;;;;;15.80;6.05;;;;;;;;;;4174898;34;20124;-67
2021/09/01 00:59:43;;;;;;;13.30;5.97;;;;;;;;;;4190787;34;20188;-67
2021/09/01 01:02:09;;;;;;;14.73;5.95;;;;;;;;;;4206096;34;20552;-67
2021/09/01 01:04:36;;;;;;;11.85;5.30;;;;;;;;;;4193185;34;20164;-67
2021/09/01 01:07:05;;;;;;;12.45;5.57;;;;;;;;;;4193270;34;20133;-67
2021/09/01 01:09:31;;;;;;;10.55;5.15;;;;;;;;;;4205880;34;20122;-66
2021/09/01 01:12:04;;;;;;;11.15;5.87;;;;;;;;;;4193424;34;20525;-67
2021/09/01 01:14:37;;;;;;;9.27;5.12;;;;;;;;;;4195977;34;20117;-67
2021/09/01 01:17:13;;;;;;;10.27;5.65;;;;;;;;;;4191837;34;20206;-67
2021/09/01 01:19:43;;;;;;;12.60;4.97;;;;;;;;;;4179434;34;20105;-67
2021/09/01 01:22:16;;;;;;;10.73;6.00;;;;;;;;;;4179356;34;20118;-67
2021/09/01 01:25:06;;;;;;;15.80;5.70;;;;;;;;;;4168463;34;20098;-67
2021/09/01 01:27:36;;;;;;;14.90;5.65;;;;;;;;;;4179384;34;20438;-67
2021/09/01 01:30:22;;;;;;;11.52;4.62;;;;;;;;;;4179341;34;20094;-67
2021/09/01 01:32:51;;;;;;;9.80;5.25;;;;;;;;;;4191571;34;20126;-67
2021/09/01 01:35:30;;;;;;;10.25;5.82;;;;;;;;;;4179115;34;20118;-67
2021/09/01 01:37:58;;;;;;;13.43;4.90;;;;;;;;;;4179400;34;20186;-67
2021/09/01 01:40:24;;;;;;;11.82;5.28;;;;;;;;;;4191482;34;20159;-66
2021/09/01 01:42:53;;;;;;;16.62;6.60;;;;;;;;;;4179159;34;20117;-66
2021/09/01 01:45:19;;;;;;;9.30;5.57;;;;;;;;;;4191810;34;20133;-66
2021/09/01 01:47:45;;;;;;;11.30;5.90;;;;;;;;;;4179291;34;20117;-67
2021/09/01 01:50:11;;;;;;;10.82;5.35;;;;;;;;;;4191809;34;20109;-66
2021/09/01 01:52:37;;;;;;;15.55;6.53;;;;;;;;;;4191786;34;20140;-67
2021/09/01 01:55:04;;;;;;;9.77;5.35;;;;;;;;;;4178969;34;20149;-67
2021/09/01 01:57:30;;;;;;;14.50;5.62;;;;;;;;;;4179069;34;20102;-67
2021/09/01 01:59:55;;;;;;;10.50;5.80;;;;;;;;;;4191574;34;20133;-67
2021/09/01 02:02:21;;;;;;;13.60;6.53;;;;;;;;;;4191509;34;20117;-67
2021/09/01 02:04:47;;;;;;;17.62;6.93;;;;;;;;;;4178836;34;20122;-67
2021/09/01 02:07:14;;;;;;;9.63;6.25;;;;;;;;;;4191747;34;20550;-67
2021/09/01 02:09:40;;;;;;;13.43;7.03;;;;;;;;;;4191671;34;20083;-67
2021/09/01 02:12:06;;;;;;;13.88;6.72;;;;;;;;;;4178953;34;20117;-66
2021/09/01 02:14:32;;;;;;;17.58;7.40;;;;;;;;;;4190424;34;20130;-65
2021/09/01 02:16:58;;;;;;;14.15;7.05;;;;;;;;;;4191197;34;20338;-66
2021/09/01 02:19:24;;;;;;;13.73;7.20;;;;;;;;;;4178802;34;20121;-66
2021/09/01 02:21:50;;;;;;;16.70;8.43;;;;;;;;;;4178817;34;20129;-66
2021/09/01 02:24:16;;;;;;;21.52;10.13;;;;;;;;;;4191428;34;20549;-66
2021/09/01 02:26:42;;;;;;;25.60;12.07;;;;;;;;;;4191483;34;20470;-66
2021/09/01 02:29:08;;;;;;;31.52;14.32;;;;;;;;;;4178646;34;20593;-66
2021/09/01 02:31:34;;;;;;;34.60;14.60;;;;;;;;;;4191623;34;20106;-66
2021/09/01 02:34:03;;;;;;;25.02;12.60;;;;;;;;;;4191368;34;20573;-67
2021/09/01 02:36:29;;;;;;;28.75;11.23;;;;;;;;;;4178837;34;20119;-67
2021/09/01 02:38:55;;;;;;;18.77;8.63;;;;;;;;;;4191644;34;20145;-67
2021/09/01 02:41:23;;;;;;;14.60;8.88;;;;;;;;;;4191285;34;20104;-67
2021/09/01 02:43:50;;;;;;;17.60;8.60;;;;;;;;;;4177830;34;20105;-67
2021/09/01 02:46:17;;;;;;;24.30;10.32;;;;;;;;;;4191383;34;20432;-67
2021/09/01 02:48:44;;;;;;;30.80;10.65;;;;;;;;;;4178679;34;20181;-67
2021/09/01 02:51:10;;;;;;;21.42;9.48;;;;;;;;;;4185562;34;20121;-67
2021/09/01 02:53:36;;;;;;;20.48;9.60;;;;;;;;;;4191372;34;20121;-67
2021/09/01 02:56:03;;;;;;;14.13;7.57;;;;;;;;;;4178279;34;20122;-66
2021/09/01 02:58:29;;;;;;;21.58;8.23;;;;;;;;;;4191268;34;20088;-67
2021/09/01 03:00:54;;;;;;;13.48;7.20;;;;;;;;;;4178665;34;20118;-66
2021/09/01 03:03:20;;;;;;;20.92;6.95;;;;;;;;;;4197512;34;20133;-67
2021/09/01 03:05:46;;;;;;;14.10;7.65;;;;;;;;;;4204703;34;20122;-67
2021/09/01 03:08:12;;;;;;;16.08;6.30;;;;;;;;;;4204855;34;20125;-66
2021/09/01 03:10:38;;;;;;;10.57;6.53;;;;;;;;;;4204776;34;20125;-65
2021/09/01 03:13:04;;;;;;;14.10;7.43;;;;;;;;;;4204768;34;20112;-65
2021/09/01 03:15:31;;;;;;;13.80;7.18;;;;;;;;;;4177311;34;20722;-64
2021/09/01 03:17:57;;;;;;;15.38;7.20;;;;;;;;;;4189450;34;20217;-64
2021/09/01 03:20:23;;;;;;;19.37;8.45;;;;;;;;;;4204905;34;20141;-64
2021/09/01 03:22:49;;;;;;;18.08;7.57;;;;;;;;;;4204779;34;20121;-65
2021/09/01 03:25:15;;;;;;;17.98;7.15;;;;;;;;;;4204778;34;20128;-66
2021/09/01 03:27:41;;;;;;;19.20;8.68;;;;;;;;;;4191909;34;20132;-66
2021/09/01 03:30:07;;;;;;;22.40;9.60;;;;;;;;;;4191953;34;20121;-66
2021/09/01 03:32:33;;;;;;;20.80;8.48;;;;;;;;;;4204671;34;20141;-66
2021/09/01 03:34:59;;;;;;;25.85;10.27;;;;;;;;;;4186700;34;20533;-66
2021/09/01 03:37:25;;;;;;;24.60;8.57;;;;;;;;;;4190713;34;20122;-66
2021/09/01 03:39:52;;;;;;;19.58;9.07;;;;;;;;;;4178019;34;20093;-66
2021/09/01 03:42:18;;;;;;;17.73;9.93;;;;;;;;;;4229396;28;20114;-67
2021/09/01 03:44:44;;;;;;;19.23;9.65;;;;;;;;;;4218193;34;20166;-68
2021/09/01 03:47:10;;;;;;;21.02;9.20;;;;;;;;;;4193390;34;20114;-67
2021/09/01 03:49:40;;;;;;;13.98;8.70;;;;;;;;;;4191807;34;20124;-67
2021/09/01 03:52:13;;;;;;;21.33;10.38;;;;;;;;;;4202641;34;20609;-67
2021/09/01 03:55:33;;;;;;;26.58;11.85;;;;;;;;;;4197878;34;20122;-71
2021/09/01 03:57:59;;;;;;;19.92;10.73;;;;;;;;;;4193602;34;20116;-68
2021/09/01 04:00:25;;;;;;;25.23;11.70;;;;;;;;;;4193332;34;20220;-67
2021/09/01 04:02:51;;;;;;;23.48;10.57;;;;;;;;;;4206506;34;20121;-65
2021/09/01 04:05:18;;;;;;;16.30;11.07;;;;;;;;;;4206525;34;20233;-71
2021/09/01 04:07:44;;;;;;;17.02;10.43;;;;;;;;;;4193498;34;20196;-70
2021/09/01 04:10:10;;;;;;;18.85;11.50;;;;;;;;;;4205987;34;20207;-67
2021/09/01 04:12:36;;;;;;;21.15;11.48;;;;;;;;;;4206080;34;20514;-71
2021/09/01 04:15:04;;;;;;;24.00;10.73;;;;;;;;;;4205828;34;20098;-68
2021/09/01 04:17:31;;;;;;;16.25;10.73;;;;;;;;;;4193359;34;20114;-68
2021/09/01 04:19:57;;;;;;;19.30;10.80;;;;;;;;;;4206019;34;20141;-67
2021/09/01 04:22:23;;;;;;;19.27;10.73;;;;;;;;;;4193174;34;20091;-65
2021/09/01 04:24:50;;;;;;;20.00;11.15;;;;;;;;;;4181760;34;20137;-67
2021/09/01 04:27:16;;;;;;;19.67;9.45;;;;;;;;;;4205533;34;20116;-67
2021/09/01 04:29:42;;;;;;;18.10;9.15;;;;;;;;;;4205640;34;20530;-67
2021/09/01 04:32:08;;;;;;;10.77;7.78;;;;;;;;;;4190688;34;20597;-67
2021/09/01 04:34:34;;;;;;;12.85;7.85;;;;;;;;;;4204095;34;20137;-67
2021/09/01 04:37:00;;;;;;;21.10;7.40;;;;;;;;;;4203852;34;20186;-67
2021/09/01 04:39:26;;;;;;;19.73;7.62;;;;;;;;;;4205149;34;20129;-67
2021/09/01 04:41:52;;;;;;;8.25;5.95;;;;;;;;;;4204650;34;20201;-67
2021/09/01 04:44:19;;;;;;;8.45;5.47;;;;;;;;;;4205059;34;20149;-67
2021/09/01 04:46:45;;;;;;;11.98;6.37;;;;;;;;;;4192736;34;20522;-68
2021/09/01 04:49:11;;;;;;;15.80;6.55;;;;;;;;;;4191801;34;20114;-67
2021/09/01 04:51:37;;;;;;;11.63;5.87;;;;;;;;;;4193057;34;20125;-68
2021/09/01 04:54:03;;;;;;;11.90;6.53;;;;;;;;;;4188116;34;20126;-68
2021/09/01 04:56:30;;;;;;;14.40;6.40;;;;;;;;;;4191886;34;20177;-67
2021/09/01 04:58:56;;;;;;;16.30;6.60;;;;;;;;;;4179532;34;20216;-68
2021/09/01 05:01:22;;;;;;;9.55;5.45;;;;;;;;;;4192001;34;20106;-68
2021/09/01 05:03:48;;;;;;;15.70;6.30;;;;;;;;;;4192054;34;20121;-69
2021/09/01 05:06:14;;;;;;;13.10;6.47;;;;;;;;;;4192111;34;20114;-69
2021/09/01 05:08:40;;;;;;;9.93;6.40;;;;;;;;;;4191343;34;20221;-69
2021/09/01 05:11:06;;;;;;;8.70;5.12;;;;;;;;;;4179042;34;20122;-70
2021/09/01 05:13:32;;;;;;;11.05;5.97;;;;;;;;;;4178468;34;20242;-68
2021/09/01 05:15:58;;;;;;;12.23;5.87;;;;;;;;;;4191805;34;20233;-70
2021/09/01 05:18:24;;;;;;;12.45;5.40;;;;;;;;;;4192022;34;20520;-67
2021/09/01 05:20:50;;;;;;;18.87;6.97;;;;;;;;;;4191769;34;20117;-68
2021/09/01 05:23:17;;;;;;;9.60;5.50;;;;;;;;;;4179019;34;20223;-70
2021/09/01 05:26:02;;;;;;;12.75;5.40;;;;;;;;;;4191724;34;20137;-70
2021/09/01 05:28:30;;;;;;;12.65;4.47;;;;;;;;;;4198473;34;20537;-70
2021/09/01 05:30:58;;;;;;;12.98;5.20;;;;;;;;;;4205103;34;20128;-71
2021/09/01 05:33:24;;;;;;;10.55;5.72;;;;;;;;;;4192763;34;20098;-66
2021/09/01 05:35:50;;;;;;;13.82;5.97;;;;;;;;;;4181464;34;20105;-65
2021/09/01 05:38:17;;;;;;;15.52;5.53;;;;;;;;;;4181570;34;20226;-66
2021/09/01 05:40:43;;;;;;;14.80;5.43;;;;;;;;;;4205242;34;20162;-68
2021/09/01 05:43:09;;;;;;;11.35;5.85;;;;;;;;;;4205550;34;20129;-68
2021/09/01 05:45:35;;;;;;;10.23;4.93;;;;;;;;;;4192677;34;20534;-66
2021/09/01 05:48:01;;;;;;;29.50;7.35;;;;;;;;;;4181188;34;20128;-64
2021/09/01 05:50:28;;;;;;;16.70;6.30;;;;;;;;;;4205332;34;20547;-65
2021/09/01 05:52:54;;;;;;;58.63;13.45;;;;;;;;;;4192605;34;20204;-65
2021/09/01 05:55:21;;;;;;;30.67;8.88;;;;;;;;;;4181090;34;20220;-66
2021/09/01 05:57:48;;;;;;;17.92;7.60;;;;;;;;;;4192748;34;20108;-66
2021/09/01 06:00:15;;;;;;;13.43;6.00;;;;;;;;;;4192336;34;20149;-66
2021/09/01 06:03:04;;;;;;;13.48;6.20;;;;;;;;;;4205525;34;20194;-66
2021/09/01 06:05:31;;;;;;;16.80;5.80;;;;;;;;;;4193650;34;20123;-65
2021/09/01 06:07:58;;;;;;;15.65;6.03;;;;;;;;;;4180661;34;20216;-67
2021/09/01 06:10:32;;;;;;;12.52;5.87;;;;;;;;;;4190818;34;20146;-68
2021/09/01 06:13:03;;;;;;;10.95;5.20;;;;;;;;;;4204954;34;20114;-63
2021/09/01 06:15:30;;;;;;;10.07;5.62;;;;;;;;;;4192653;34;20175;-67
2021/09/01 06:17:56;;;;;;;15.80;5.85;;;;;;;;;;4205396;34;20121;-67
2021/09/01 06:20:22;;;;;;;13.55;5.20;;;;;;;;;;4192446;34;20184;-65
2021/09/01 06:22:48;;;;;;;17.60;5.00;;;;;;;;;;4191579;34;20458;-70
2021/09/01 06:25:14;;;;;;;11.90;6.32;;;;;;;;;;4205277;34;20545;-64
2021/09/01 06:27:41;;;;;;;13.52;7.05;;;;;;;;;;4192404;34;20135;-65
2021/09/01 06:30:08;;;;;;;20.73;6.70;;;;;;;;;;4192186;34;20086;-65
2021/09/01 06:32:35;;;;;;;10.20;6.55;;;;;;;;;;4191232;34;20173;-66
2021/09/01 06:35:02;;;;;;;10.38;6.55;;;;;;;;;;4178022;34;20124;-66
2021/09/01 06:37:30;;;;;;;20.58;7.55;;;;;;;;;;4191110;34;20179;-66
2021/09/01 06:39:58;;;;;;;24.45;8.60;;;;;;;;;;4178298;34;20301;-66
2021/09/01 06:42:26;;;;;;;14.02;7.65;;;;;;;;;;4178390;34;20087;-66
2021/09/01 06:44:53;;;;;;;16.62;6.93;;;;;;;;;;4191043;34;20210;-65
2021/09/01 06:47:19;;;;;;;12.57;6.25;;;;;;;;;;4190955;34;20123;-66
2021/09/01 06:49:46;;;;;;;10.73;6.93;;;;;;;;;;4178347;34;20213;-65
2021/09/01 06:52:12;;;;;;;12.20;6.43;;;;;;;;;;4194912;34;20125;-65
2021/09/01 06:54:38;;;;;;;18.45;6.75;;;;;;;;;;4204671;34;20110;-66
2021/09/01 06:57:05;;;;;;;13.73;7.75;;;;;;;;;;4192072;34;20567;-66
2021/09/01 06:59:32;;;;;;;20.45;6.35;;;;;;;;;;4183729;34;20112;-65
2021/09/01 07:02:00;;;;;;;30.50;7.72;;;;;;;;;;4190674;34;20554;-65
2021/09/01 07:04:30;;;;;;;10.00;6.72;;;;;;;;;;4178046;34;20117;-66
2021/09/01 07:06:59;;;;;;;21.33;8.57;;;;;;;;;;4178088;34;20506;-67
2021/09/01 07:09:27;;;;;;;12.85;7.40;;;;;;;;;;4192358;34;20183;-67
2021/09/01 07:11:53;;;;;;;13.38;6.80;;;;;;;;;;4191535;34;20102;-67
2021/09/01 07:14:20;;;;;;;14.23;7.82;;;;;;;;;;4180256;34;20138;-66
2021/09/01 07:16:48;;;;;;;14.18;7.97;;;;;;;;;;4191433;34;20145;-66
2021/09/01 07:19:14;;;;;;;9.32;6.37;;;;;;;;;;4197982;34;20193;-66
2021/09/01 07:21:41;;;;;;;16.52;5.53;;;;;;;;;;4191182;34;20110;-67
2021/09/01 07:24:09;;;;;;;10.15;6.97;;;;;;;;;;4191841;34;20505;-68
2021/09/01 07:26:35;;;;;;;11.15;8.85;;;;;;;;;;4200592;34;20129;-68
2021/09/01 07:29:01;;;;;;;16.17;10.10;;;;;;;;;;4195568;34;20112;-68
2021/09/01 07:31:30;;;;;;;11.43;8.02;;;;;;;;;;4203607;34;20542;-67
2021/09/01 07:33:57;;;;;;;13.30;8.55;;;;;;;;;;4194715;34;20125;-67
2021/09/01 07:36:24;;;;;;;15.52;8.32;;;;;;;;;;4166340;34;20241;-67
2021/09/01 07:38:53;;;;;;;12.13;8.32;;;;;;;;;;4177583;34;20135;-67
2021/09/01 07:41:22;;;;;;;16.00;8.05;;;;;;;;;;4192453;34;20121;-67
2021/09/01 07:43:51;;;;;;;15.43;8.50;;;;;;;;;;4204617;34;20104;-68
2021/09/01 07:46:18;;;;;;;18.60;8.45;;;;;;;;;;4191248;34;20676;-68
2021/09/01 07:48:45;;;;;;;41.03;9.75;;;;;;;;;;4180436;34;20117;-68
2021/09/01 07:51:12;;;;;;;16.55;8.30;;;;;;;;;;4203685;34;20631;-67
2021/09/01 07:53:38;;;;;;;17.67;7.40;;;;;;;;;;4180410;34;20144;-67
2021/09/01 07:56:05;;;;;;;16.30;8.15;;;;;;;;;;4203754;34;20189;-67
2021/09/01 07:58:31;;;;;;;16.65;6.62;;;;;;;;;;4201674;34;20132;-67
2021/09/01 08:01:00;;;;;;;16.20;6.70;;;;;;;;;;4190095;34;20201;-66
2021/09/01 08:03:28;;;;;;;13.57;6.05;;;;;;;;;;4190367;34;20102;-67
2021/09/01 08:05:54;;;;;;;12.07;6.60;;;;;;;;;;4190373;34;20110;-67
2021/09/01 08:08:25;;;;;;;19.48;8.95;;;;;;;;;;4190475;34;20121;-66
2021/09/01 08:10:53;;;;;;;13.10;6.93;;;;;;;;;;4213067;28;20161;-67
2021/09/01 08:13:20;;;;;;;13.25;7.20;;;;;;;;;;4217454;34;20117;-66
2021/09/01 08:15:47;;;;;;;12.55;7.03;;;;;;;;;;4190815;34;20193;-65
2021/09/01 08:18:13;;;;;;;12.07;6.72;;;;;;;;;;4201938;34;20121;-65
2021/09/01 08:20:40;;;;;;;14.55;8.90;;;;;;;;;;4199851;34;20530;-65
2021/09/01 08:23:07;;;;;;;14.80;9.25;;;;;;;;;;4200106;34;20110;-64
2021/09/01 08:25:34;;;;;;;15.32;8.57;;;;;;;;;;4175844;34;20145;-64
2021/09/01 08:28:00;;;;;;;13.95;7.95;;;;;;;;;;4199840;34;20106;-66
2021/09/01 08:30:27;;;;;;;13.68;7.90;;;;;;;;;;4187365;34;20230;-66
2021/09/01 08:32:53;;;;;;;29.58;8.32;;;;;;;;;;4201078;34;20121;-63
2021/09/01 08:35:19;;;;;;;18.70;8.23;;;;;;;;;;4203513;34;20105;-66
2021/09/01 08:37:49;;;;;;;13.55;7.87;;;;;;;;;;4202697;34;20118;-66
2021/09/01 08:40:16;;;;;;;13.52;8.27;;;;;;;;;;4202784;34;20540;-67
2021/09/01 08:42:46;;;;;;;15.48;9.63;;;;;;;;;;4191783;34;20189;-66
2021/09/01 08:45:13;;;;;;;12.93;7.95;;;;;;;;;;4182542;34;20468;-66
2021/09/01 08:47:41;;;;;;;15.63;10.05;;;;;;;;;;4205855;34;20209;-66
2021/09/01 08:50:08;;;;;;;14.73;7.72;;;;;;;;;;4192944;34;20110;-67
2021/09/01 08:52:37;;;;;;;18.10;7.87;;;;;;;;;;4192933;34;20206;-67
2021/09/01 08:55:10;;;;;;;14.23;7.85;;;;;;;;;;4205819;34;20185;-66
2021/09/01 08:57:38;;;;;;;12.05;7.22;;;;;;;;;;4205623;34;20125;-66
2021/09/01 09:00:08;;;;;;;14.70;7.78;;;;;;;;;;4205877;34;20117;-65
2021/09/01 09:02:36;;;;;;;19.90;6.62;;;;;;;;;;4191478;34;20129;-65
2021/09/01 09:05:24;;;;;;;18.98;7.10;;;;;;;;;;4190784;34;20212;-65
2021/09/01 09:07:53;;;;;;;11.45;5.78;;;;;;;;;;4186199;34;20112;-65
2021/09/01 09:10:25;;;;;;;11.23;6.57;;;;;;;;;;4203036;34;20118;-65
2021/09/01 09:13:06;;;;;;;15.32;5.97;;;;;;;;;;4205132;34;20129;-65
2021/09/01 09:16:46;;;;;;;24.90;6.20;;;;;;;;;;4182310;34;20506;-65
2021/09/01 09:19:14;;;;;;;14.77;5.05;;;;;;;;;;4192690;34;20116;-65
2021/09/01 09:21:41;;;;;;;17.95;4.75;;;;;;;;;;4205623;34;20097;-65
2021/09/01 09:24:20;;;;;;;17.20;6.37;;;;;;;;;;4205259;34;20132;-65
2021/09/01 09:26:46;;;;;;;9.38;5.65;;;;;;;;;;4204823;34;20110;-64
2021/09/01 09:29:17;;;;;;;12.85;4.53;;;;;;;;;;4192817;34;20117;-67
2021/09/01 09:32:06;;;;;;;5.65;3.47;;;;;;;;;;4205387;34;20104;-66
2021/09/01 09:34:41;;;;;;;18.48;3.58;;;;;;;;;;4191469;34;20106;-65
2021/09/01 09:37:11;;;;;;;9.23;4.12;;;;;;;;;;4189929;34;20109;-66
2021/09/01 09:39:41;;;;;;;16.77;4.45;;;;;;;;;;4205585;34;20547;-67
2021/09/01 09:42:09;;;;;;;12.60;4.97;;;;;;;;;;4205393;34;20118;-67
2021/09/01 09:44:35;;;;;;;5.40;3.70;;;;;;;;;;4192716;34;20137;-66
2021/09/01 09:47:01;;;;;;;6.25;3.28;;;;;;;;;;4205377;34;20154;-67
2021/09/01 09:49:32;;;;;;;12.15;4.03;;;;;;;;;;4203426;34;20104;-67
2021/09/01 09:51:58;;;;;;;9.13;4.20;;;;;;;;;;4192777;34;20132;-68
2021/09/01 09:54:27;;;;;;;6.72;2.35;;;;;;;;;;4192365;34;20511;-66
2021/09/01 09:57:11;;;;;;;16.35;4.70;;;;;;;;;;4205642;34;20082;-65
2021/09/01 09:59:37;;;;;;;7.43;3.65;;;;;;;;;;4205743;34;20189;-65
2021/09/01 10:02:04;;;;;;;23.12;5.25;;;;;;;;;;4192731;34;20101;-64
2021/09/01 10:04:30;;;;;;;20.02;6.28;;;;;;;;;;4205605;34;20100;-64
2021/09/01 10:06:56;;;;;;;15.98;4.20;;;;;;;;;;4192559;34;20117;-64
2021/09/01 10:09:24;;;;;;;12.57;3.72;;;;;;;;;;4192667;34;20127;-65
2021/09/01 10:11:50;;;;;;;6.00;2.87;;;;;;;;;;4205163;34;20606;-64
2021/09/01 10:14:21;;;;;;;6.05;3.40;;;;;;;;;;4192375;34;20132;-64
2021/09/01 10:17:14;;;;;;;15.23;4.75;;;;;;;;;;4191988;34;20189;-64
2021/09/01 10:19:40;;;;;;;8.55;3.83;;;;;;;;;;4194527;34;20149;-64
2021/09/01 10:22:07;;;;;;;10.65;3.60;;;;;;;;;;4192214;34;20133;-65
2021/09/01 10:24:36;;;;;;;10.27;3.67;;;;;;;;;;4205231;34;20102;-65
2021/09/01 10:27:13;;;;;;;8.98;3.72;;;;;;;;;;4192204;34;20184;-64
2021/09/01 10:29:40;;;;;;;8.27;2.92;;;;;;;;;;4192541;34;20124;-64
2021/09/01 10:32:29;;;;;;;12.07;3.28;;;;;;;;;;4205219;34;20141;-64
2021/09/01 10:35:11;;;;;;;5.70;3.62;;;;;;;;;;4205150;34;20177;-64
2021/09/01 10:37:40;;;;;;;6.03;3.65;;;;;;;;;;4205389;34;20141;-64
2021/09/01 10:40:09;;;;;;;10.88;3.60;;;;;;;;;;4192775;34;20565;-64
2021/09/01 10:42:39;;;;;;;8.50;2.80;;;;;;;;;;4181106;34;20190;-64
2021/09/01 10:45:08;;;;;;;12.82;3.97;;;;;;;;;;4192692;34;20129;-64
2021/09/01 10:48:08;;;;;;;10.27;3.83;;;;;;;;;;4205202;34;20521;-64
2021/09/01 10:50:37;;;;;;;6.78;4.18;;;;;;;;;;4167335;34;20524;-64
2021/09/01 10:53:17;;;;;;;10.30;5.03;;;;;;;;;;4205176;34;20114;-63
2021/09/01 10:55:54;;;;;;;7.40;2.78;;;;;;;;;;4193495;34;20582;-63
2021/09/01 10:58:24;;;;;;;10.13;4.00;;;;;;;;;;4204882;34;20190;-63
2021/09/01 11:00:57;;;;;;;10.13;4.35;;;;;;;;;;4192269;34;20525;-63
2021/09/01 11:03:33;;;;;;;6.00;2.83;;;;;;;;;;4192505;34;20114;-63
2021/09/01 11:06:22;;;;;;;3.42;2.40;;;;;;;;;;4191336;34;20616;-63
2021/09/01 11:08:55;;;;;;;7.87;3.62;;;;;;;;;;4192308;34;20108;-63
2021/09/01 11:11:21;;;;;;;8.88;3.80;;;;;;;;;;4204504;34;20117;-63
2021/09/01 11:13:48;;;;;;;3.47;2.60;;;;;;;;;;4204919;34;20196;-65
2021/09/01 11:16:24;;;;;;;8.10;2.40;;;;;;;;;;4204545;34;20121;-64
2021/09/01 11:19:09;;;;;;;15.38;4.43;;;;;;;;;;4205074;34;20187;-66
2021/09/01 11:21:44;;;;;;;13.70;3.53;;;;;;;;;;4204777;34;20102;-65
2021/09/01 11:24:12;;;;;;;12.07;4.47;;;;;;;;;;4205086;34;20109;-66
2021/09/01 11:26:38;;;;;;;12.45;4.62;;;;;;;;;;4191423;34;20114;-66
2021/09/01 11:29:06;;;;;;;5.40;2.03;;;;;;;;;;4203810;34;20125;-65
2021/09/01 11:31:44;;;;;;;9.15;3.65;;;;;;;;;;4204764;34;20109;-65
2021/09/01 11:34:12;;;;;;;7.43;3.42;;;;;;;;;;4204686;34;20201;-64
2021/09/01 11:36:39;;;;;;;6.43;2.95;;;;;;;;;;4191708;34;20118;-64
2021/09/01 11:39:05;;;;;;;10.07;3.17;;;;;;;;;;4204861;34;20229;-66
2021/09/01 11:41:32;;;;;;;16.33;4.50;;;;;;;;;;4204421;34;20491;-66
2021/09/01 11:44:04;;;;;;;2.50;1.75;;;;;;;;;;4180678;34;20414;-66
2021/09/01 11:46:34;;;;;;;9.73;4.07;;;;;;;;;;4204657;34;20113;-67
2021/09/01 11:49:08;;;;;;;5.12;3.05;;;;;;;;;;4192429;34;20114;-66
2021/09/01 11:51:36;;;;;;;7.00;3.53;;;;;;;;;;4191585;34;20408;-66
2021/09/01 11:54:02;;;;;;;8.43;4.68;;;;;;;;;;4192005;34;20128;-64
2021/09/01 11:56:28;;;;;;;2.67;2.25;;;;;;;;;;4204299;34;20597;-65
2021/09/01 11:59:07;;;;;;;6.12;2.95;;;;;;;;;;4204566;34;20132;-64
2021/09/01 12:01:55;;;;;;;9.82;3.78;;;;;;;;;;4191569;34;20121;-66
2021/09/01 12:04:22;;;;;;;15.25;4.87;;;;;;;;;;4191817;34;20212;-64
2021/09/01 12:06:52;;;;;;;10.73;4.32;;;;;;;;;;4191592;34;20114;-64
2021/09/01 12:09:19;;;;;;;11.27;4.47;;;;;;;;;;4203761;34;20220;-65
2021/09/01 12:11:56;;;;;;;10.60;4.47;;;;;;;;;;4203884;34;20117;-65
2021/09/01 12:14:24;;;;;;;17.85;5.50;;;;;;;;;;4191301;34;20482;-65
2021/09/01 12:17:15;;;;;;;13.32;6.03;;;;;;;;;;4205218;34;20109;-65
2021/09/01 12:19:52;;;;;;;14.07;4.87;;;;;;;;;;4206697;34;20110;-63
2021/09/01 12:22:47;;;;;;;14.63;6.50;;;;;;;;;;4182469;34;20097;-65
2021/09/01 12:25:20;;;;;;;34.30;7.70;;;;;;;;;;4195512;34;20122;-63
2021/09/01 12:27:58;;;;;;;20.10;6.97;;;;;;;;;;4206547;34;20112;-64
2021/09/01 12:30:28;;;;;;;14.27;7.40;;;;;;;;;;4193729;34;20494;-64
2021/09/01 12:33:02;;;;;;;17.05;8.13;;;;;;;;;;4193454;34;20129;-64
2021/09/01 12:35:31;;;;;;;18.20;5.60;;;;;;;;;;4205454;34;20101;-64
2021/09/01 12:38:00;;;;;;;11.32;4.53;;;;;;;;;;4193985;34;20430;-64
2021/09/01 12:40:28;;;;;;;18.80;5.80;;;;;;;;;;4206044;34;20529;-65
2021/09/01 12:43:10;;;;;;;10.70;5.80;;;;;;;;;;4193810;34;20146;-63
2021/09/01 12:45:40;;;;;;;18.02;7.12;;;;;;;;;;4206121;34;20180;-64
2021/09/01 12:48:10;;;;;;;19.12;5.93;;;;;;;;;;4182174;34;20109;-64
2021/09/01 12:50:44;;;;;;;17.58;6.53;;;;;;;;;;4206192;34;20548;-67
2021/09/01 12:53:24;;;;;;;15.23;5.35;;;;;;;;;;4206486;34;20132;-65
2021/09/01 12:55:52;;;;;;;12.85;5.60;;;;;;;;;;4193984;34;20189;-65
2021/09/01 12:58:18;;;;;;;8.65;4.40;;;;;;;;;;4206023;34;20136;-64
2021/09/01 13:00:45;;;;;;;16.62;4.65;;;;;;;;;;4206215;34;20136;-65
2021/09/01 13:03:11;;;;;;;9.27;4.43;;;;;;;;;;4206014;34;20458;-66
2021/09/01 13:05:38;;;;;;;10.18;4.47;;;;;;;;;;4181716;34;20117;-64
2021/09/01 13:08:05;;;;;;;11.30;4.43;;;;;;;;;;4193247;34;20214;-64
2021/09/01 13:10:33;;;;;;;9.70;3.70;;;;;;;;;;4205596;34;20105;-64
2021/09/01 13:13:12;;;;;;;8.93;4.10;;;;;;;;;;4206224;34;20446;-64
2021/09/01 13:16:03;;;;;;;9.88;4.37;;;;;;;;;;4193168;34;20119;-63
2021/09/01 13:18:30;;;;;;;14.15;4.43;;;;;;;;;;4192848;34;20530;-64
2021/09/01 13:21:06;;;;;;;17.92;4.43;;;;;;;;;;4205742;34;20122;-63
2021/09/01 13:23:32;;;;;;;7.87;2.87;;;;;;;;;;4192888;34;20607;-63
2021/09/01 13:25:58;;;;;;;20.35;3.92;;;;;;;;;;4205828;34;20129;-64
2021/09/01 13:28:24;;;;;;;13.90;4.00;;;;;;;;;;4205082;34;20116;-64
2021/09/01 13:30:50;;;;;;;12.55;3.40;;;;;;;;;;4205548;34;20101;-63
2021/09/01 13:33:16;;;;;;;14.00;4.82;;;;;;;;;;4205696;34;20109;-64
2021/09/01 13:35:43;;;;;;;12.13;3.92;;;;;;;;;;4205682;34;20106;-64
2021/09/01 13:38:09;;;;;;;10.93;3.83;;;;;;;;;;4205892;34;20132;-64
2021/09/01 13:40:36;;;;;;;16.40;5.43;;;;;;;;;;4205627;34;20128;-63
2021/09/01 13:43:02;;;;;;;24.77;10.18;;;;;;;;;;4205733;34;20132;-64
2021/09/01 13:45:28;;;;;;;21.27;10.07;;;;;;;;;;4181312;34;20113;-65
2021/09/01 13:47:54;;;;;;;16.60;8.35;;;;;;;;;;4205640;34;20533;-65
2021/09/01 13:50:20;;;;;;;15.88;8.05;;;;;;;;;;4204366;34;20128;-66
2021/09/01 13:52:48;;;;;;;14.18;7.47;;;;;;;;;;4192737;34;20129;-66
2021/09/01 13:55:15;;;;;;;10.68;4.70;;;;;;;;;;4178732;34;20221;-66
2021/09/01 13:57:43;;;;;;;18.50;4.70;;;;;;;;;;4179391;34;20125;-66
2021/09/01 14:00:10;;;;;;;12.48;3.60;;;;;;;;;;4186235;34;20117;-66
2021/09/01 14:02:40;;;;;;;8.88;3.75;;;;;;;;;;4205748;34;20125;-65
2021/09/01 14:05:08;;;;;;;20.40;4.72;;;;;;;;;;4180856;34;20245;-67
2021/09/01 14:07:35;;;;;;;14.35;4.20;;;;;;;;;;4205335;34;20125;-65
2021/09/01 14:10:01;;;;;;;6.22;3.78;;;;;;;;;;4203956;34;20548;-66
2021/09/01 14:12:27;;;;;;;16.20;3.97;;;;;;;;;;4203092;34;20114;-68
2021/09/01 14:14:52;;;;;;;12.40;4.43;;;;;;;;;;4203448;34;20145;-65
2021/09/01 14:17:18;;;;;;;9.07;4.15;;;;;;;;;;4203889;34;20119;-65
2021/09/01 14:19:44;;;;;;;12.55;4.80;;;;;;;;;;4190966;34;20205;-65
2021/09/01 14:22:11;;;;;;;9.65;4.30;;;;;;;;;;4191106;34;20132;-64
2021/09/01 14:24:38;;;;;;;13.25;4.03;;;;;;;;;;4204525;34;20133;-65
2021/09/01 14:27:05;;;;;;;9.18;4.40;;;;;;;;;;4204963;34;20133;-64
2021/09/01 14:29:31;;;;;;;14.98;5.80;;;;;;;;;;4205251;34;20128;-64
2021/09/01 14:31:58;;;;;;;19.85;5.95;;;;;;;;;;4192330;34;20094;-64
2021/09/01 14:34:24;;;;;;;15.02;3.90;;;;;;;;;;4204285;34;20179;-64
2021/09/01 14:36:50;;;;;;;14.70;4.80;;;;;;;;;;4205120;34;20102;-64
2021/09/01 14:39:16;;;;;;;17.77;5.00;;;;;;;;;;4204807;34;20090;-64
2021/09/01 14:41:42;;;;;;;17.10;4.97;;;;;;;;;;4191247;34;20129;-64
2021/09/01 14:44:08;;;;;;;19.70;4.18;;;;;;;;;;4205107;34;20536;-64
2021/09/01 14:46:35;;;;;;;12.13;4.30;;;;;;;;;;4384535;28;20188;-65
2021/09/01 14:49:02;;;;;;;12.65;3.92;;;;;;;;;;4224191;33;20129;-64
2021/09/01 14:51:28;;;;;;;11.70;4.18;;;;;;;;;;4204175;34;20518;-65
2021/09/01 14:54:00;;;;;;;16.02;4.28;;;;;;;;;;4206504;34;20152;-65
2021/09/01 14:56:40;;;;;;;22.35;5.28;;;;;;;;;;4205661;33;20089;-65
2021/09/01 14:59:07;;;;;;;14.70;4.95;;;;;;;;;;4216001;34;20179;-64